Billings, MT (59101)

10:01 PM MDT on August 28, 2016 (GMT -0600)
Jupiter Sulphur | | Change Station

Elev 3114 ft 45.78 °N, 108.49 °W | Updated 6 minutes ago

Mostly Cloudy
Mostly Cloudy
76.9 °F
Feels Like 78 °F
N
7.0
Wind Variable Wind from NE
Gusts 8.0 mph

Today
High -- | Low -- °F
--% Chance of Precip.
Yesterday
High -- | Low -- °F
Precip. -- in
Pressure 30.06 in
Visibility 10.0 miles
Clouds Scattered Clouds 12000 ft
Mostly Cloudy 18000 ft
Heat Index 78 °F
Dew Point 47 °F
Humidity 35%
Rainfall 0.00 in
Snow Depth Not available.
6:30 AM 7:58 PM
Waning Crescent, 11% visible
METAR KBIL 290353Z 03010KT 10SM SCT120 BKN180 24/06 A3015 RMK AO2 SLP178 T02390061
Pressure 30.06 in
Visibility 10.0 miles
Clouds Scattered Clouds 12000 ft
Mostly Cloudy 18000 ft
Heat Index 78 °F
Dew Point 47 °F
Humidity 35%
Rainfall 0.00 in
Snow Depth Not available.
6:30 AM 7:58 PM
Waning Crescent, 11% visible
METAR KBIL 290353Z 03010KT 10SM SCT120 BKN180 24/06 A3015 RMK AO2 SLP178 T02390061

10-Day Weather Forecast

Almanac

Astronomy

Aug. 28, 2016 Rise Set
Actual Time
Civil Twilight
Nautical Twilight
Astronomical Twilight
Moon
Length of Visible Light
Length of Day
Tomorrow will be .
, % of the Moon is Illuminated

Today's Extremes

State Highs State Lows

Community

WunderPhotos

Upload Photos

1,935,790 photos uploaded!

WunderBlog® & News

Nearby

Air Quality

  Air Quality AQ Index Pollutant
Not available.

Snow Depth

Station Depth Elevation

Earthquake Activity

City Distance Mag. Time & Date
Minimum magnitude displayed is 2.5.

Coastal Water Temperatures

Place Temperature

Stations

Nearby Weather Stations

Station Location Temp. Windchill Dew Point Humidity Wind Precip. Elev Updated Type
                   

Watches & Warnings

There are currently no watches in effect.